createdAt,value
2023-05-22T00:01:45.528Z,12.90
2023-05-22T00:04:13.460Z,12.90
2023-05-22T00:06:42.636Z,12.90
2023-05-22T00:09:10.107Z,12.90
2023-05-22T00:11:36.878Z,12.80
2023-05-22T00:14:03.611Z,12.80
2023-05-22T00:16:30.568Z,12.80
2023-05-22T00:18:57.724Z,12.70
2023-05-22T00:21:24.933Z,12.70
2023-05-22T00:23:51.860Z,12.60
2023-05-22T00:31:13.747Z,12.60
2023-05-22T00:33:40.429Z,12.50
2023-05-22T00:36:07.637Z,12.50
2023-05-22T00:38:36.528Z,12.50
2023-05-22T00:41:04.186Z,12.50
2023-05-22T00:43:31.333Z,12.50
2023-05-22T00:45:58.488Z,12.50
2023-05-22T00:48:25.645Z,12.50
2023-05-22T00:50:53.871Z,12.50
2023-05-22T00:53:21.358Z,12.50
2023-05-22T00:55:48.207Z,12.40
2023-05-22T00:58:18.032Z,12.40
2023-05-22T01:00:45.386Z,12.40
2023-05-22T01:03:12.309Z,12.40
2023-05-22T01:05:39.850Z,12.40
2023-05-22T01:08:07.809Z,12.40
2023-05-22T01:10:35.563Z,12.40
2023-05-22T01:13:43.690Z,12.30
2023-05-22T01:16:29.914Z,12.30
2023-05-22T01:19:50.565Z,12.30
2023-05-22T01:22:36.073Z,12.30
2023-05-22T01:25:31.834Z,12.30
2023-05-22T01:28:08.707Z,12.30
2023-05-22T01:30:56.380Z,12.30
2023-05-22T01:33:26.128Z,12.40
2023-05-22T01:35:56.410Z,12.30
2023-05-22T01:38:23.172Z,12.40
2023-05-22T01:40:49.976Z,12.40
2023-05-22T01:43:16.938Z,12.50
2023-05-22T01:45:43.908Z,12.50
2023-05-22T01:48:12.454Z,12.60
2023-05-22T01:50:40.163Z,12.60
2023-05-22T01:53:24.732Z,12.70
2023-05-22T01:56:15.125Z,12.70
2023-05-22T01:58:56.541Z,12.80
2023-05-22T02:01:23.379Z,12.80
2023-05-22T02:03:51.792Z,12.80
2023-05-22T02:06:18.636Z,12.80
2023-05-22T02:08:45.327Z,12.80
2023-05-22T02:11:12.069Z,12.80
2023-05-22T02:13:39.040Z,12.80
2023-05-22T02:16:06.296Z,12.80
2023-05-22T02:18:33.755Z,12.90
2023-05-22T02:21:00.717Z,12.90
2023-05-22T02:23:29.816Z,12.90
2023-05-22T02:25:56.781Z,12.90
2023-05-22T02:28:23.595Z,13.00
2023-05-22T02:30:50.589Z,12.90
2023-05-22T02:33:20.314Z,12.90
2023-05-22T02:35:47.115Z,12.90
2023-05-22T02:38:13.857Z,12.90
2023-05-22T02:40:40.884Z,12.90
2023-05-22T02:43:08.626Z,13.00
2023-05-22T02:45:35.790Z,13.00
2023-05-22T02:48:03.860Z,13.00
2023-05-22T02:50:30.740Z,12.90
2023-05-22T02:52:57.653Z,13.00
2023-05-22T03:44:37.709Z,13.00
2023-05-22T03:47:05.076Z,13.00
2023-05-22T03:49:31.925Z,13.10
2023-05-22T03:51:58.632Z,13.10
2023-05-22T03:54:25.341Z,13.10
2023-05-22T03:56:52.091Z,13.10
2023-05-22T03:59:18.749Z,13.10
2023-05-22T04:01:46.665Z,13.10
2023-05-22T04:04:13.483Z,13.10
2023-05-22T04:06:43.253Z,13.10
2023-05-22T04:09:13.609Z,13.00
2023-05-22T04:11:40.301Z,13.00
2023-05-22T04:14:07.034Z,12.90
2023-05-22T04:16:34.031Z,12.90
2023-05-22T04:19:03.654Z,12.90
2023-05-22T04:21:34.422Z,12.90
2023-05-22T04:24:07.312Z,12.90
2023-05-22T04:26:34.266Z,12.90
2023-05-22T04:29:01.243Z,12.90
2023-05-22T04:31:28.420Z,12.90
2023-05-22T04:33:55.885Z,13.00
2023-05-22T04:36:26.104Z,13.00
2023-05-22T04:38:54.078Z,13.00
2023-05-22T04:41:22.672Z,13.00
2023-05-22T04:43:49.801Z,13.00
2023-05-22T04:46:16.655Z,13.10
2023-05-22T04:48:43.482Z,13.10
2023-05-22T04:51:10.338Z,13.10
2023-05-22T04:53:38.706Z,13.10
2023-05-22T04:56:06.287Z,13.10
2023-05-22T04:58:33.255Z,13.20
2023-05-22T05:01:00.081Z,13.30
2023-05-22T05:03:27.061Z,13.30
2023-05-22T05:05:54.128Z,13.40
2023-05-22T05:08:20.830Z,13.40
2023-05-22T05:10:47.609Z,13.40
2023-05-22T05:13:14.501Z,13.40
2023-05-22T05:15:41.264Z,13.40
2023-05-22T05:37:47.543Z,13.50
2023-05-22T05:40:14.437Z,13.90
2023-05-22T05:42:41.156Z,13.90
2023-05-22T05:45:08.376Z,14.00
2023-05-22T05:47:35.141Z,13.90
2023-05-22T05:50:01.937Z,14.00
2023-05-22T05:52:32.464Z,14.00
2023-05-22T05:55:00.909Z,14.00
2023-05-22T05:57:28.576Z,14.00
2023-05-22T05:59:55.332Z,14.00
2023-05-22T06:02:22.133Z,14.00
2023-05-22T06:04:49.194Z,14.00
2023-05-22T06:07:16.336Z,14.00
2023-05-22T06:09:43.032Z,14.00
2023-05-22T06:12:12.933Z,14.10
2023-05-22T06:14:42.775Z,14.30
2023-05-22T06:17:09.494Z,14.50
2023-05-22T06:19:36.656Z,14.60
2023-05-22T06:22:04.121Z,14.60
2023-05-22T06:24:32.590Z,14.70
2023-05-22T06:26:59.521Z,14.70
2023-05-22T06:29:26.727Z,14.70
2023-05-22T06:31:53.510Z,14.70
2023-05-22T06:34:22.423Z,14.80
2023-05-22T06:36:50.520Z,14.80
2023-05-22T06:39:18.123Z,15.00
2023-05-22T06:41:45.277Z,15.10
2023-05-22T06:44:12.929Z,15.10
2023-05-22T06:46:39.795Z,15.10
2023-05-22T06:49:06.733Z,15.10
2023-05-22T06:51:34.114Z,15.20
2023-05-22T06:54:00.921Z,15.30
2023-05-22T06:56:27.839Z,15.30
2023-05-22T06:58:54.977Z,15.30
2023-05-22T07:01:21.897Z,15.20
2023-05-22T07:03:48.654Z,15.30
2023-05-22T07:06:15.609Z,15.30
2023-05-22T07:08:42.545Z,15.50
2023-05-22T07:11:09.379Z,15.60
2023-05-22T07:13:36.559Z,15.60
2023-05-22T07:16:03.478Z,15.70
2023-05-22T07:18:31.317Z,15.80
2023-05-22T07:20:58.606Z,16.00
2023-05-22T07:23:26.370Z,16.10
2023-05-22T07:25:53.297Z,16.10
2023-05-22T07:28:20.073Z,16.20
2023-05-22T07:30:46.860Z,16.40
2023-05-22T07:33:14.452Z,16.50
2023-05-22T07:35:41.137Z,16.60
2023-05-22T07:38:07.892Z,16.60
2023-05-22T07:40:34.616Z,16.60
2023-05-22T07:43:01.467Z,16.40
2023-05-22T07:45:28.185Z,16.30
2023-05-22T07:47:56.370Z,16.00
2023-05-22T07:50:23.351Z,16.00
2023-05-22T07:52:50.079Z,15.90
2023-05-22T07:55:16.833Z,16.00
2023-05-22T07:57:43.798Z,16.20
2023-05-22T08:00:12.884Z,16.40
2023-05-22T08:02:41.281Z,16.80
2023-05-22T08:05:08.892Z,16.90
2023-05-22T08:07:36.412Z,17.00
2023-05-22T08:10:04.447Z,17.30
2023-05-22T08:12:31.350Z,17.60
2023-05-22T08:14:58.142Z,17.70
2023-05-22T08:17:25.059Z,17.70
2023-05-22T08:19:52.022Z,17.50
2023-05-22T08:22:18.824Z,17.50
2023-05-22T08:24:45.845Z,17.60
2023-05-22T08:27:12.614Z,17.50
2023-05-22T08:29:39.405Z,17.70
2023-05-22T08:32:06.925Z,17.70
2023-05-22T08:34:34.364Z,18.00
2023-05-22T08:37:01.224Z,18.40
2023-05-22T08:39:28.804Z,18.60
2023-05-22T08:41:55.974Z,18.90
2023-05-22T08:44:22.752Z,19.10
2023-05-22T08:46:49.720Z,19.10
2023-05-22T08:49:16.546Z,18.90
2023-05-22T08:51:43.556Z,18.60
2023-05-22T08:54:10.312Z,18.10
2023-05-22T08:56:39.740Z,17.70
2023-05-22T08:59:12.866Z,17.60
2023-05-22T09:01:39.730Z,17.40
2023-05-22T09:04:06.607Z,17.20
2023-05-22T09:06:33.398Z,17.20
2023-05-22T09:09:00.202Z,17.20
2023-05-22T09:11:27.215Z,17.30
2023-05-22T09:13:54.207Z,17.40
2023-05-22T09:16:21.036Z,17.50
2023-05-22T09:18:47.907Z,17.70
2023-05-22T09:21:28.825Z,17.80
2023-05-22T09:24:01.459Z,18.00
2023-05-22T09:26:33.073Z,17.90
2023-05-22T09:29:00.110Z,17.90
2023-05-22T09:31:31.746Z,17.80
2023-05-22T09:33:59.454Z,17.70
2023-05-22T09:36:33.647Z,17.60
2023-05-22T09:39:01.742Z,17.50
2023-05-22T09:41:35.265Z,17.50
2023-05-22T09:44:02.364Z,17.50
2023-05-22T09:46:29.684Z,17.50
2023-05-22T09:48:57.604Z,17.30
2023-05-22T09:51:24.429Z,17.30
2023-05-22T09:53:51.522Z,17.20
2023-05-22T09:56:27.141Z,17.20
2023-05-22T09:59:02.135Z,17.10
2023-05-22T10:01:29.093Z,17.00
2023-05-22T10:03:55.928Z,17.10
2023-05-22T10:06:23.302Z,17.10
2023-05-22T10:08:54.593Z,17.00
2023-05-22T10:11:22.102Z,17.10
2023-05-22T10:13:49.225Z,17.10
2023-05-22T10:16:16.794Z,17.10
2023-05-22T10:18:46.042Z,17.10
2023-05-22T10:21:13.130Z,17.10
2023-05-22T10:23:40.084Z,17.20
2023-05-22T10:26:06.807Z,17.20
2023-05-22T10:28:38.664Z,17.20
2023-05-22T10:31:09.793Z,17.10
2023-05-22T10:33:42.448Z,17.20
2023-05-22T10:36:10.716Z,17.20
2023-05-22T10:38:55.759Z,17.40
2023-05-22T10:41:25.858Z,17.60
2023-05-22T10:43:52.798Z,17.80
2023-05-22T10:46:20.515Z,18.10
2023-05-22T10:48:49.233Z,18.40
2023-05-22T10:51:19.867Z,18.70
2023-05-22T10:53:55.578Z,19.30
2023-05-22T10:56:25.248Z,19.60
2023-05-22T10:59:02.786Z,19.70
2023-05-22T11:01:29.800Z,19.80
2023-05-22T11:04:00.329Z,19.90
2023-05-22T11:06:46.198Z,19.80
2023-05-22T11:09:32.252Z,19.50
2023-05-22T11:12:24.879Z,19.50
2023-05-22T11:14:56.281Z,19.40
2023-05-22T11:17:26.214Z,19.50
2023-05-22T11:20:11.856Z,19.30
2023-05-22T11:22:52.130Z,19.20
2023-05-22T11:25:20.001Z,19.30
2023-05-22T11:27:47.504Z,19.40
2023-05-22T11:30:15.265Z,19.40
2023-05-22T11:32:48.306Z,19.60
2023-05-22T11:35:17.231Z,19.70
2023-05-22T11:37:44.347Z,19.70
2023-05-22T11:40:13.350Z,19.50
2023-05-22T11:42:40.175Z,19.50
2023-05-22T11:45:07.749Z,19.50
2023-05-22T11:47:34.650Z,19.20
2023-05-22T11:50:02.120Z,19.20
2023-05-22T11:52:36.147Z,19.10
2023-05-22T11:55:05.531Z,19.00
2023-05-22T11:57:32.578Z,18.80
2023-05-22T11:59:59.746Z,18.60
2023-05-22T12:02:27.043Z,18.60
2023-05-22T12:04:57.655Z,18.60
2023-05-22T12:07:25.926Z,18.40
2023-05-22T12:09:52.737Z,18.30
2023-05-22T12:12:22.458Z,18.10
2023-05-22T12:14:50.232Z,18.10
2023-05-22T12:17:17.902Z,18.00
2023-05-22T12:19:44.685Z,18.00
2023-05-22T12:22:11.839Z,18.10
2023-05-22T12:24:41.885Z,18.30
2023-05-22T12:27:10.297Z,18.50
2023-05-22T12:29:38.050Z,18.80
2023-05-22T12:32:07.201Z,18.90
2023-05-22T12:34:34.664Z,18.90
2023-05-22T12:37:01.869Z,18.80
2023-05-22T12:39:29.692Z,18.80
2023-05-22T12:41:56.448Z,18.60
2023-05-22T12:44:23.283Z,18.50
2023-05-22T12:46:50.272Z,18.50
2023-05-22T12:49:17.116Z,18.60
2023-05-22T12:51:44.179Z,18.60
2023-05-22T12:54:11.032Z,18.60
2023-05-22T12:56:37.816Z,18.70
2023-05-22T12:59:04.585Z,18.80
2023-05-22T13:01:31.709Z,18.70
2023-05-22T13:03:58.548Z,18.70
2023-05-22T13:06:27.958Z,18.80
2023-05-22T13:08:56.522Z,18.70
2023-05-22T13:11:24.258Z,18.60
2023-05-22T13:13:51.026Z,18.70
2023-05-22T13:16:17.815Z,18.80
2023-05-22T13:18:44.921Z,18.70
2023-05-22T13:21:13.478Z,18.60
2023-05-22T13:23:40.228Z,18.40
2023-05-22T13:26:06.956Z,18.40
2023-05-22T13:28:34.463Z,18.30
2023-05-22T13:31:01.505Z,18.30
2023-05-22T13:33:28.286Z,18.20
2023-05-22T13:35:55.236Z,18.20
2023-05-22T13:38:22.028Z,18.20
2023-05-22T13:40:49.059Z,18.10
2023-05-22T13:43:15.966Z,18.10
2023-05-22T13:45:42.837Z,18.10
2023-05-22T13:48:10.046Z,18.10
2023-05-22T13:50:36.820Z,17.90
2023-05-22T13:53:03.702Z,18.10
2023-05-22T13:55:30.546Z,18.20
2023-05-22T13:57:57.313Z,18.30
2023-05-22T14:00:24.681Z,18.30
2023-05-22T14:02:51.696Z,18.40
2023-05-22T14:05:18.780Z,18.50
2023-05-22T14:07:45.567Z,18.60
2023-05-22T14:10:12.675Z,18.60
2023-05-22T14:12:39.554Z,18.60
2023-05-22T14:15:06.997Z,18.70
2023-05-22T14:17:33.758Z,18.80
2023-05-22T14:20:00.579Z,18.90
2023-05-22T14:22:27.447Z,19.00
2023-05-22T14:24:54.233Z,19.10
2023-05-22T14:27:21.651Z,19.30
2023-05-22T14:29:48.463Z,19.50
2023-05-22T14:32:18.510Z,19.80
2023-05-22T14:34:45.587Z,20.00
2023-05-22T14:37:13.068Z,20.10
2023-05-22T14:39:39.839Z,20.20
2023-05-22T14:42:06.969Z,20.30
2023-05-22T14:44:33.997Z,20.40
2023-05-22T14:47:00.896Z,20.40
2023-05-22T14:49:27.700Z,20.40
2023-05-22T14:51:54.652Z,20.30
2023-05-22T14:54:23.638Z,20.10
2023-05-22T14:56:53.516Z,20.10
2023-05-22T14:59:20.959Z,19.90
2023-05-22T15:01:50.260Z,19.80
2023-05-22T15:04:18.465Z,19.80
2023-05-22T15:06:45.288Z,19.90
2023-05-22T15:09:12.101Z,20.00
2023-05-22T15:11:38.986Z,19.90
2023-05-22T15:14:06.036Z,19.90
2023-05-22T15:16:32.865Z,19.90
2023-05-22T15:18:59.821Z,20.00
2023-05-22T15:21:27.133Z,20.00
2023-05-22T15:23:57.206Z,20.00
2023-05-22T15:26:24.005Z,20.00
2023-05-22T15:28:51.272Z,19.90
2023-05-22T15:31:18.116Z,19.90
2023-05-22T15:33:50.792Z,20.00
2023-05-22T15:36:17.607Z,20.00
2023-05-22T15:38:44.645Z,19.90
2023-05-22T15:41:11.739Z,19.90
2023-05-22T15:43:38.474Z,20.00
2023-05-22T15:46:05.529Z,20.00
2023-05-22T15:48:32.624Z,20.10
2023-05-22T15:51:01.144Z,20.20
2023-05-22T15:53:27.928Z,20.20
2023-05-22T15:55:54.771Z,20.20
2023-05-22T15:58:21.553Z,20.20
2023-05-22T16:00:48.537Z,20.20
2023-05-22T16:03:16.931Z,20.10
2023-05-22T16:05:45.850Z,20.10
2023-05-22T16:08:14.101Z,20.10
2023-05-22T16:10:43.673Z,20.20
2023-05-22T16:13:10.751Z,20.20
2023-05-22T16:15:39.774Z,20.20
2023-05-22T16:18:07.465Z,20.20
2023-05-22T16:20:35.707Z,20.10
2023-05-22T16:23:02.997Z,20.00
2023-05-22T16:25:30.127Z,19.90
2023-05-22T16:27:57.247Z,19.90
2023-05-22T16:30:24.057Z,20.00
2023-05-22T16:32:50.961Z,20.00
2023-05-22T16:35:19.572Z,19.90
2023-05-22T16:37:46.486Z,19.90
2023-05-22T16:40:13.360Z,19.90
2023-05-22T16:42:40.150Z,19.90
2023-05-22T16:45:07.471Z,19.90
2023-05-22T16:47:34.279Z,19.90
2023-05-22T16:50:01.423Z,19.90
2023-05-22T16:52:28.488Z,19.80
2023-05-22T16:54:55.789Z,19.70
2023-05-22T16:57:22.735Z,19.70
2023-05-22T16:59:49.692Z,19.80
2023-05-22T17:02:17.189Z,19.70
2023-05-22T17:04:44.160Z,19.80
2023-05-22T17:07:11.482Z,19.70
2023-05-22T17:09:38.406Z,19.70
2023-05-22T17:12:05.760Z,19.60
2023-05-22T17:14:34.471Z,19.50
2023-05-22T17:17:01.261Z,19.50
2023-05-22T17:19:28.432Z,19.50
2023-05-22T17:21:56.619Z,19.30
2023-05-22T17:24:23.529Z,19.40
2023-05-22T17:26:50.259Z,19.30
2023-05-22T17:29:17.309Z,19.30
2023-05-22T17:31:44.139Z,19.30
2023-05-22T17:34:10.936Z,19.30
2023-05-22T17:36:38.076Z,19.30
2023-05-22T17:39:04.862Z,19.30
2023-05-22T17:41:32.153Z,19.30
2023-05-22T17:44:01.144Z,19.20
2023-05-22T17:46:28.393Z,19.20
2023-05-22T17:48:55.710Z,19.20
2023-05-22T17:51:22.742Z,19.10
2023-05-22T17:53:50.088Z,19.10
2023-05-22T17:56:17.164Z,19.00
2023-05-22T17:58:43.931Z,18.90
2023-05-22T18:01:11.323Z,18.80
2023-05-22T18:03:38.577Z,18.70
2023-05-22T18:06:06.224Z,18.70
2023-05-22T18:08:33.114Z,18.60
2023-05-22T18:11:00.021Z,18.50
2023-05-22T18:13:26.786Z,18.40
2023-05-22T18:15:54.351Z,18.40
2023-05-22T18:18:22.429Z,18.40
2023-05-22T18:20:49.435Z,18.30
2023-05-22T18:23:17.040Z,18.20
2023-05-22T18:25:44.066Z,18.10
2023-05-22T18:28:11.437Z,18.00
2023-05-22T18:30:38.746Z,18.00
2023-05-22T18:33:05.852Z,17.80
2023-05-22T18:35:32.803Z,17.80
2023-05-22T18:38:00.514Z,17.70
2023-05-22T18:40:27.715Z,17.50
2023-05-22T18:42:54.720Z,17.50
2023-05-22T18:45:21.558Z,17.30
2023-05-22T18:47:48.665Z,17.20
2023-05-22T18:50:15.466Z,17.10
2023-05-22T18:52:42.372Z,17.00
2023-05-22T18:55:09.818Z,17.00
2023-05-22T18:57:36.617Z,16.90
2023-05-22T19:00:03.748Z,16.90
2023-05-22T19:02:30.826Z,16.80
2023-05-22T19:05:01.163Z,16.80
2023-05-22T19:07:28.165Z,16.80
2023-05-22T19:09:54.932Z,16.70
2023-05-22T19:12:24.505Z,16.60
2023-05-22T19:14:52.487Z,16.50
2023-05-22T19:17:19.308Z,16.50
2023-05-22T19:19:46.633Z,16.40
2023-05-22T19:22:14.262Z,16.30
2023-05-22T19:24:42.275Z,16.30
2023-05-22T19:27:09.133Z,16.20
2023-05-22T19:29:36.111Z,16.20
2023-05-22T19:32:02.973Z,16.10
2023-05-22T19:34:29.837Z,16.10
2023-05-22T19:36:57.875Z,16.00
2023-05-22T19:39:24.900Z,15.90
2023-05-22T19:41:52.664Z,15.90
2023-05-22T19:44:19.484Z,15.80
2023-05-22T19:46:47.346Z,15.80
2023-05-22T19:49:14.369Z,15.70
2023-05-22T19:51:42.414Z,15.70
2023-05-22T19:54:09.349Z,15.60
2023-05-22T19:56:36.405Z,15.50
2023-05-22T19:59:03.177Z,15.50
2023-05-22T20:01:29.963Z,15.50
2023-05-22T20:03:56.934Z,15.40
2023-05-22T20:06:23.831Z,15.40
2023-05-22T20:08:50.690Z,15.30
2023-05-22T20:11:17.518Z,15.30
2023-05-22T20:13:44.300Z,15.20
2023-05-22T20:16:12.771Z,15.10
2023-05-22T20:18:41.023Z,15.10
2023-05-22T20:21:08.242Z,15.10
2023-05-22T20:23:35.063Z,15.00
2023-05-22T20:26:01.970Z,14.90
2023-05-22T20:28:28.866Z,14.90
2023-05-22T20:30:55.846Z,14.90
2023-05-22T20:33:23.132Z,14.80
2023-05-22T20:35:52.848Z,14.80
2023-05-22T20:38:20.279Z,14.70
2023-05-22T20:40:47.585Z,14.70
2023-05-22T20:43:15.082Z,14.70
2023-05-22T20:45:45.881Z,14.60
2023-05-22T20:48:13.490Z,14.60
2023-05-22T20:50:41.107Z,14.60
2023-05-22T20:53:08.498Z,14.50
2023-05-22T20:55:35.654Z,14.40
2023-05-22T20:58:02.575Z,14.40
2023-05-22T21:00:29.953Z,14.30
2023-05-22T21:02:58.411Z,14.30
2023-05-22T21:05:25.793Z,14.20
2023-05-22T21:07:52.548Z,14.20
2023-05-22T21:10:19.346Z,14.10
2023-05-22T21:12:46.113Z,14.10
2023-05-22T21:15:12.908Z,14.00
2023-05-22T21:17:39.955Z,14.00
2023-05-22T21:20:08.049Z,14.00
2023-05-22T21:22:41.361Z,13.90
2023-05-22T21:25:09.777Z,13.90
2023-05-22T21:27:36.927Z,13.90
2023-05-22T21:30:03.878Z,13.80
2023-05-22T21:32:30.699Z,13.70
2023-05-22T21:34:57.446Z,13.70
2023-05-22T21:37:24.508Z,13.70
2023-05-22T21:39:51.279Z,13.60
2023-05-22T21:42:18.457Z,13.60
2023-05-22T21:44:45.241Z,13.60
2023-05-22T21:47:12.007Z,13.60
2023-05-22T21:49:39.747Z,13.50
2023-05-22T21:52:06.886Z,13.50
2023-05-22T21:54:33.607Z,13.50
2023-05-22T21:57:00.634Z,13.40
2023-05-22T22:01:54.678Z,13.40
2023-05-22T22:04:21.509Z,13.30
2023-05-22T22:06:48.203Z,13.30
2023-05-22T22:09:15.001Z,13.20
2023-05-22T22:11:41.738Z,13.20
2023-05-22T22:14:08.478Z,13.10
2023-05-22T22:16:35.662Z,13.10
2023-05-22T22:19:03.087Z,13.00
2023-05-22T22:21:30.340Z,13.00
2023-05-22T22:23:57.394Z,13.00
2023-05-22T22:26:24.617Z,13.00
2023-05-22T22:28:51.430Z,12.90
2023-05-22T22:31:18.321Z,12.90
2023-05-22T22:33:45.514Z,12.80
2023-05-22T22:36:12.301Z,12.80
2023-05-22T22:38:39.048Z,12.70
2023-05-22T22:41:08.661Z,12.70
2023-05-22T23:27:53.135Z,12.70
2023-05-22T23:30:19.883Z,12.20
2023-05-22T23:32:47.550Z,12.20
2023-05-22T23:35:14.723Z,12.10
2023-05-22T23:37:42.083Z,12.10
2023-05-22T23:40:09.636Z,12.00
